Time;durP1;ratioP1;P1;durP2;ratioP2;P2;SDS_P1;SDS_P2;PMS_P1;PMS_P2;Temp;Humidity;BMP_temperature;BMP_pressure;BME280_temperature;BME280_humidity;BME280_pressure;Samples;Min_cycle;Max_cycle;Signal;HPM_P1;HPM_P2
2022/09/27 06:43:16;;;;;;;0.00;0.00;;;10.80;99.90;;;;;;5049171;27;20514;-69
2022/09/27 06:45:44;;;;;;;0.00;0.00;;;10.90;99.90;;;;;;5039288;28;20624;-70
2022/09/27 06:48:14;;;;;;;0.00;0.00;;;11.20;99.90;;;;;;5091869;27;20222;-69
2022/09/27 06:50:44;;;;;;;0.00;0.00;;;11.30;99.90;;;;;;5019691;28;20481;-69
2022/09/27 06:53:13;;;;;;;0.00;0.00;;;11.50;99.90;;;;;;5023076;28;20462;-70
2022/09/27 06:55:41;;;;;;;0.00;0.00;;;11.60;99.90;;;;;;5013232;28;20967;-71
2022/09/27 07:01:09;;;;;;;0.00;0.00;;;11.90;99.90;;;;;;5069684;28;20462;-69
2022/09/27 07:03:40;;;;;;;0.00;0.00;;;11.90;99.90;;;;;;5024455;28;20464;-69
2022/09/27 07:06:15;;;;;;;0.00;0.00;;;11.90;99.90;;;;;;5017943;28;20513;-69
2022/09/27 07:08:43;;;;;;;0.00;0.00;;;11.90;99.90;;;;;;5014703;28;21007;-73
2022/09/27 07:11:11;;;;;;;0.00;0.00;;;12.00;99.90;;;;;;5017789;28;20724;-73
2022/09/27 07:13:41;;;;;;;0.00;0.00;;;12.10;99.90;;;;;;5027510;28;20452;-73
2022/09/27 07:16:13;;;;;;;0.00;0.00;;;12.10;99.90;;;;;;5023665;27;20488;-72
2022/09/27 07:18:43;;;;;;;0.00;0.00;;;12.00;99.90;;;;;;5016830;28;20637;-72
2022/09/27 07:21:12;;;;;;;0.00;0.00;;;12.00;99.90;;;;;;5001186;28;20453;-71
2022/09/27 07:23:40;;;;;;;0.00;0.00;;;12.00;99.90;;;;;;5006541;28;20462;-72
2022/09/27 07:26:09;;;;;;;0.00;0.00;;;12.00;99.90;;;;;;5013907;28;20711;-72
2022/09/27 07:28:40;;;;;;;0.00;0.00;;;12.00;99.90;;;;;;5013383;28;20777;-72
2022/09/27 07:31:08;;;;;;;0.00;0.00;;;12.00;99.90;;;;;;5002902;28;20856;-74
2022/09/27 07:33:38;;;;;;;0.00;0.00;;;12.10;99.90;;;;;;5011969;28;20756;-72
2022/09/27 07:36:14;;;;;;;0.00;0.00;;;12.10;99.90;;;;;;5011013;28;20444;-72
2022/09/27 07:38:42;;;;;;;0.00;0.00;;;12.10;99.90;;;;;;4999123;28;20478;-72
2022/09/27 07:41:12;;;;;;;0.00;0.00;;;12.20;99.90;;;;;;5007258;28;20497;-71
2022/09/27 07:43:41;;;;;;;0.00;0.00;;;12.20;99.90;;;;;;5006827;28;20466;-71
2022/09/27 07:46:09;;;;;;;0.00;0.00;;;12.30;99.90;;;;;;5002942;28;20460;-71
2022/09/27 07:48:40;;;;;;;0.00;0.00;;;12.30;99.90;;;;;;5007490;28;20754;-71
2022/09/27 07:51:09;;;;;;;0.00;0.00;;;12.30;99.90;;;;;;5011537;28;20461;-70
2022/09/27 07:53:37;;;;;;;0.00;0.00;;;12.30;99.90;;;;;;5003432;28;20430;-72
2022/09/27 07:56:05;;;;;;;0.00;0.00;;;12.40;99.90;;;;;;4998466;28;20438;-71
2022/09/27 07:58:33;;;;;;;0.00;0.00;;;12.40;99.90;;;;;;4999714;28;20676;-72
2022/09/27 08:01:02;;;;;;;0.00;0.00;;;12.40;99.90;;;;;;5007473;28;20798;-73
2022/09/27 08:03:30;;;;;;;0.00;0.00;;;12.50;99.90;;;;;;5003151;28;20500;-71
2022/09/27 08:06:02;;;;;;;0.00;0.00;;;12.60;99.90;;;;;;4996288;28;20540;-71
2022/09/27 08:08:30;;;;;;;0.00;0.00;;;12.70;99.90;;;;;;4994986;28;20454;-71
2022/09/27 08:10:58;;;;;;;0.00;0.00;;;12.70;99.90;;;;;;4990674;28;20525;-71
2022/09/27 08:13:26;;;;;;;0.00;0.00;;;12.70;99.90;;;;;;5002402;28;20847;-71
2022/09/27 08:15:54;;;;;;;0.00;0.00;;;12.70;99.90;;;;;;4994576;28;20661;-70
2022/09/27 08:18:23;;;;;;;0.00;0.00;;;12.80;99.90;;;;;;4999561;28;20968;-71
2022/09/27 08:20:51;;;;;;;0.00;0.00;;;12.90;99.90;;;;;;4996206;28;20596;-71
2022/09/27 08:23:20;;;;;;;0.00;0.00;;;12.90;99.90;;;;;;4992153;28;20548;-71
2022/09/27 08:25:52;;;;;;;0.00;0.00;;;12.90;99.90;;;;;;5001441;28;20453;-72
2022/09/27 08:28:21;;;;;;;0.00;0.00;;;13.00;99.90;;;;;;5000375;28;20552;-72
2022/09/27 08:30:49;;;;;;;0.00;0.00;;;13.10;99.90;;;;;;4987592;28;21013;-72
2022/09/27 08:33:17;;;;;;;0.00;0.00;;;13.20;99.90;;;;;;4998623;28;21183;-72
2022/09/27 08:35:45;;;;;;;0.00;0.00;;;13.20;99.90;;;;;;4999393;28;20507;-73
2022/09/27 08:38:13;;;;;;;0.00;0.00;;;13.20;99.90;;;;;;4996573;28;20461;-72
2022/09/27 08:40:53;;;;;;;0.00;0.00;;;13.40;99.90;;;;;;4999534;28;20618;-72
2022/09/27 08:43:31;;;;;;;0.00;0.00;;;13.40;99.90;;;;;;4989885;28;20475;-72
2022/09/27 08:46:09;;;;;;;0.00;0.00;;;13.40;99.90;;;;;;5000763;28;20453;-71
2022/09/27 08:48:39;;;;;;;0.00;0.00;;;13.50;99.90;;;;;;4995044;28;20590;-71
2022/09/27 08:51:11;;;;;;;0.00;0.00;;;13.40;99.90;;;;;;4999624;28;20482;-71
2022/09/27 08:53:46;;;;;;;0.00;0.00;;;13.40;99.90;;;;;;4994731;28;20446;-71
2022/09/27 08:56:20;;;;;;;0.00;0.00;;;13.30;99.90;;;;;;4983231;28;21314;-72
2022/09/27 08:58:52;;;;;;;0.00;0.00;;;13.10;99.90;;;;;;4978803;28;20663;-72
2022/09/27 09:01:20;;;;;;;0.00;0.00;;;13.10;99.90;;;;;;4991169;28;20531;-72
2022/09/27 09:03:58;;;;;;;0.00;0.00;;;13.10;99.90;;;;;;4987446;28;20727;-72
2022/09/27 09:06:28;;;;;;;0.00;0.00;;;13.10;99.90;;;;;;4989447;28;20711;-71
2022/09/27 09:09:17;;;;;;;0.00;0.00;;;13.00;99.90;;;;;;4984004;28;20462;-73
2022/09/27 09:15:17;;;;;;;0.00;0.00;;;13.00;99.90;;;;;;4988394;28;20473;-73
2022/09/27 09:18:03;;;;;;;0.00;0.00;;;13.00;99.90;;;;;;4988158;28;21190;-73
2022/09/27 09:20:49;;;;;;;0.00;0.00;;;12.90;99.90;;;;;;4993044;28;20467;-71
2022/09/27 09:23:33;;;;;;;0.00;0.00;;;12.80;99.90;;;;;;4995114;28;20477;-70
2022/09/27 09:26:08;;;;;;;0.00;0.00;;;12.70;99.90;;;;;;4986771;28;20974;-73
2022/09/27 09:28:54;;;;;;;0.00;0.00;;;12.50;99.90;;;;;;4981283;28;20438;-74
2022/09/27 09:31:31;;;;;;;0.00;0.00;;;12.50;99.90;;;;;;4989931;28;20530;-72
2022/09/27 09:34:05;;;;;;;0.00;0.00;;;12.40;99.90;;;;;;4995294;28;21042;-73
2022/09/27 09:36:38;;;;;;;0.00;0.00;;;12.30;99.90;;;;;;4992367;28;20996;-71
2022/09/27 09:39:14;;;;;;;0.00;0.00;;;12.30;99.90;;;;;;5002406;28;20457;-72
2022/09/27 09:41:48;;;;;;;0.00;0.00;;;12.30;99.90;;;;;;4989700;28;20490;-73
2022/09/27 09:44:23;;;;;;;0.00;0.00;;;12.20;99.90;;;;;;5002840;28;20544;-72
2022/09/27 09:46:55;;;;;;;0.00;0.00;;;12.20;99.90;;;;;;4997695;28;20468;-71
2022/09/27 09:49:28;;;;;;;0.00;0.00;;;12.20;99.90;;;;;;5004345;28;20462;-71
2022/09/27 09:52:01;;;;;;;0.00;0.00;;;12.20;99.90;;;;;;4998216;28;20467;-71
2022/09/27 09:54:40;;;;;;;0.00;0.00;;;12.10;99.90;;;;;;4997336;28;20529;-71
2022/09/27 09:57:14;;;;;;;0.00;0.00;;;12.20;99.90;;;;;;4998989;28;20650;-71
2022/09/27 09:59:49;;;;;;;0.00;0.00;;;12.20;99.90;;;;;;5014426;28;20933;-72
2022/09/27 10:02:26;;;;;;;0.00;0.00;;;12.20;99.90;;;;;;5020162;28;20733;-70
2022/09/27 10:04:54;;;;;;;0.00;0.00;;;12.20;99.90;;;;;;5005642;28;20516;-72
2022/09/27 10:07:24;;;;;;;0.00;0.00;;;12.20;99.90;;;;;;5004368;28;20458;-73
2022/09/27 10:09:53;;;;;;;0.00;0.00;;;12.10;99.90;;;;;;4993305;28;20473;-71
2022/09/27 10:12:22;;;;;;;0.00;0.00;;;12.10;99.90;;;;;;4996265;28;20446;-71
2022/09/27 10:14:53;;;;;;;0.00;0.00;;;12.10;99.90;;;;;;5011219;28;20585;-72
2022/09/27 10:17:25;;;;;;;0.00;0.00;;;12.20;99.90;;;;;;5004138;28;20453;-72
2022/09/27 10:19:53;;;;;;;0.00;0.00;;;12.20;99.90;;;;;;4993825;28;20999;-74
2022/09/27 10:22:26;;;;;;;0.00;0.00;;;12.20;99.90;;;;;;5004418;28;20873;-71
2022/09/27 10:24:57;;;;;;;0.00;0.00;;;12.20;99.90;;;;;;5001543;28;20547;-71
2022/09/27 10:27:25;;;;;;;0.00;0.00;;;12.20;99.90;;;;;;4996651;28;20837;-69
2022/09/27 10:29:59;;;;;;;0.00;0.00;;;12.10;99.90;;;;;;4996014;28;20465;-69
2022/09/27 10:32:31;;;;;;;0.00;0.00;;;12.20;99.90;;;;;;4996015;28;20957;-69
2022/09/27 10:35:35;;;;;;;0.00;0.00;;;12.10;99.90;;;;;;4995650;28;20458;-70
2022/09/27 10:38:24;;;;;;;0.00;0.00;;;12.20;99.90;;;;;;4996670;28;20924;-70
2022/09/27 10:40:54;;;;;;;0.00;0.00;;;12.20;99.90;;;;;;4995720;28;21036;-70
2022/09/27 10:43:28;;;;;;;0.00;0.00;;;12.20;99.90;;;;;;4996433;28;20535;-70
2022/09/27 10:46:07;;;;;;;0.00;0.00;;;12.20;99.90;;;;;;4995920;28;20502;-70
2022/09/27 10:48:35;;;;;;;0.00;0.00;;;12.30;99.90;;;;;;4995922;28;20446;-70
2022/09/27 10:51:06;;;;;;;0.00;0.00;;;12.40;99.90;;;;;;4995972;28;20640;-70
2022/09/27 10:53:35;;;;;;;0.00;0.00;;;12.50;99.90;;;;;;5001794;28;20446;-70
2022/09/27 10:56:03;;;;;;;0.00;0.00;;;12.50;99.90;;;;;;5014091;28;20461;-72
2022/09/27 10:58:33;;;;;;;0.00;0.00;;;12.40;99.90;;;;;;5015154;28;20855;-72
2022/09/27 11:01:05;;;;;;;0.00;0.00;;;12.50;99.90;;;;;;5018618;28;20469;-71
2022/09/27 11:03:38;;;;;;;0.00;0.00;;;12.70;99.90;;;;;;5017886;28;20538;-72
2022/09/27 11:06:20;;;;;;;0.00;0.00;;;12.90;99.90;;;;;;5015553;28;20465;-71
2022/09/27 11:08:49;;;;;;;0.00;0.00;;;13.10;99.90;;;;;;5015881;28;20452;-71
2022/09/27 11:11:20;;;;;;;0.00;0.00;;;13.20;99.90;;;;;;5015390;28;20469;-77
2022/09/27 11:13:58;;;;;;;0.00;0.00;;;13.20;99.90;;;;;;5008589;28;20957;-70
2022/09/27 11:16:44;;;;;;;0.00;0.00;;;13.30;99.90;;;;;;4990871;28;20744;-70
2022/09/27 11:19:32;;;;;;;0.00;0.00;;;13.30;99.90;;;;;;5003993;28;20450;-71
2022/09/27 11:22:05;;;;;;;0.00;0.00;;;13.40;99.90;;;;;;4975559;28;20965;-70
2022/09/27 11:24:50;;;;;;;0.00;0.00;;;13.50;99.90;;;;;;5000859;28;20479;-71
2022/09/27 11:27:28;;;;;;;0.00;0.00;;;13.60;99.90;;;;;;5013334;28;20441;-68
2022/09/27 11:30:05;;;;;;;0.00;0.00;;;13.80;99.90;;;;;;5008901;28;20481;-70
2022/09/27 11:32:49;;;;;;;0.00;0.00;;;13.80;99.90;;;;;;5002565;28;20644;-70
2022/09/27 11:35:46;;;;;;;0.00;0.00;;;13.90;99.90;;;;;;5018822;28;20436;-70
2022/09/27 11:38:19;;;;;;;0.00;0.00;;;14.00;99.90;;;;;;5019734;28;20592;-70
2022/09/27 11:41:22;;;;;;;0.00;0.00;;;14.00;99.90;;;;;;5018757;27;20914;-70
2022/09/27 11:44:20;;;;;;;0.00;0.00;;;13.90;99.90;;;;;;5000974;28;20493;-70
2022/09/27 11:46:56;;;;;;;0.00;0.00;;;13.80;99.90;;;;;;5001772;28;20453;-70
2022/09/27 11:49:43;;;;;;;0.00;0.00;;;13.70;99.90;;;;;;4998416;28;20465;-70
2022/09/27 11:52:25;;;;;;;0.00;0.00;;;13.60;99.90;;;;;;5000456;28;20461;-70
2022/09/27 11:55:12;;;;;;;0.00;0.00;;;13.60;99.90;;;;;;4979785;28;21024;-69
2022/09/27 11:57:45;;;;;;;0.00;0.00;;;13.60;99.90;;;;;;4979570;28;21106;-69
2022/09/27 12:00:20;;;;;;;0.00;0.00;;;13.70;99.90;;;;;;4985867;28;20980;-69
2022/09/27 12:03:20;;;;;;;0.00;0.00;;;13.70;99.90;;;;;;5017930;28;20486;-70
2022/09/27 12:06:02;;;;;;;0.00;0.00;;;13.80;99.90;;;;;;5017928;28;20827;-70
2022/09/27 12:08:57;;;;;;;0.00;0.00;;;13.90;99.90;;;;;;5018169;28;20441;-70
2022/09/27 12:11:29;;;;;;;0.00;0.00;;;14.00;99.90;;;;;;5018017;28;20948;-71
2022/09/27 12:14:03;;;;;;;0.00;0.00;;;14.10;99.90;;;;;;5018554;28;20453;-71
2022/09/27 12:16:32;;;;;;;0.00;0.00;;;14.20;99.90;;;;;;5018847;28;20441;-69
2022/09/27 12:19:03;;;;;;;0.00;0.00;;;14.30;99.90;;;;;;5017697;28;20464;-69
2022/09/27 12:21:33;;;;;;;0.00;0.00;;;14.30;99.90;;;;;;5014512;28;20537;-70
2022/09/27 12:24:03;;;;;;;0.00;0.00;;;14.40;99.90;;;;;;5009402;28;20449;-70
2022/09/27 12:26:39;;;;;;;0.00;0.00;;;14.40;99.90;;;;;;4998002;28;20495;-70
2022/09/27 12:29:15;;;;;;;0.00;0.00;;;14.50;99.90;;;;;;4998144;28;20720;-70
2022/09/27 12:31:47;;;;;;;0.00;0.00;;;14.50;99.90;;;;;;5010295;28;20477;-70
2022/09/27 12:34:18;;;;;;;0.00;0.00;;;14.60;99.90;;;;;;5000856;28;20971;-71
2022/09/27 12:36:53;;;;;;;0.00;0.00;;;14.60;99.90;;;;;;5001465;28;20453;-71
2022/09/27 12:39:25;;;;;;;0.00;0.00;;;14.70;99.90;;;;;;4997393;28;20481;-71
2022/09/27 12:42:00;;;;;;;0.00;0.00;;;14.80;99.90;;;;;;5005361;28;20465;-71
2022/09/27 12:44:37;;;;;;;0.00;0.00;;;14.90;99.90;;;;;;5017593;28;20473;-71
2022/09/27 12:47:11;;;;;;;0.00;0.00;;;15.00;99.90;;;;;;5017056;28;20691;-70
2022/09/27 12:49:49;;;;;;;0.00;0.00;;;15.10;99.90;;;;;;5016505;28;20744;-70
2022/09/27 12:52:24;;;;;;;0.00;0.00;;;15.20;99.90;;;;;;5012332;28;20856;-71
2022/09/27 12:55:22;;;;;;;0.00;0.00;;;15.30;99.90;;;;;;4997952;28;20434;-71
2022/09/27 12:58:12;;;;;;;0.00;0.00;;;15.20;99.90;;;;;;5013141;28;20776;-70
2022/09/27 13:00:45;;;;;;;0.00;0.00;;;15.10;99.90;;;;;;4996318;28;20482;-73
2022/09/27 13:03:34;;;;;;;0.00;0.00;;;15.10;99.90;;;;;;5002806;28;20738;-76
2022/09/27 13:06:21;;;;;;;0.00;0.00;;;15.10;99.90;;;;;;5003233;28;20805;-72
2022/09/27 13:09:12;;;;;;;0.00;0.00;;;15.00;99.90;;;;;;4990957;28;20475;-71
2022/09/27 13:11:47;;;;;;;0.00;0.00;;;14.80;99.90;;;;;;4998281;28;20458;-74
2022/09/27 13:14:19;;;;;;;0.00;0.00;;;14.80;99.90;;;;;;5002173;28;20828;-72
2022/09/27 13:16:48;;;;;;;0.00;0.00;;;14.80;99.90;;;;;;4997901;28;20439;-71
2022/09/27 13:19:41;;;;;;;0.00;0.00;;;14.70;99.90;;;;;;4996932;28;20526;-72
2022/09/27 13:22:11;;;;;;;0.00;0.00;;;14.70;99.90;;;;;;4991828;28;20741;-72
2022/09/27 13:24:46;;;;;;;0.00;0.00;;;14.70;99.90;;;;;;4990524;28;20482;-74
2022/09/27 13:27:38;;;;;;;0.00;0.00;;;14.70;99.90;;;;;;4989190;28;20477;-74
2022/09/27 13:30:45;;;;;;;0.00;0.00;;;14.80;99.90;;;;;;4979969;28;20636;-73
2022/09/27 13:33:32;;;;;;;0.00;0.00;;;14.70;99.90;;;;;;4993157;28;20998;-71
2022/09/27 13:36:32;;;;;;;0.00;0.00;;;14.70;99.90;;;;;;4990706;28;20469;-72
2022/09/27 13:39:18;;;;;;;0.00;0.00;;;14.60;99.90;;;;;;4988091;28;20846;-71
2022/09/27 13:42:06;;;;;;;0.00;0.00;;;14.50;99.90;;;;;;4989249;28;20462;-73
2022/09/27 13:44:46;;;;;;;0.00;0.00;;;14.50;99.90;;;;;;4985338;28;20444;-72
2022/09/27 13:47:26;;;;;;;0.00;0.00;;;14.60;99.90;;;;;;4986241;28;20445;-71
2022/09/27 13:49:59;;;;;;;0.00;0.00;;;14.60;99.90;;;;;;5000916;28;20651;-71
2022/09/27 13:52:32;;;;;;;0.00;0.00;;;14.70;99.90;;;;;;5015798;28;20506;-72
2022/09/27 13:55:02;;;;;;;0.00;0.00;;;14.70;99.90;;;;;;5005147;28;20442;-73
2022/09/27 13:57:44;;;;;;;0.00;0.00;;;14.70;99.90;;;;;;4996250;28;20462;-73
2022/09/27 14:00:14;;;;;;;0.00;0.00;;;14.60;99.90;;;;;;5007289;28;20870;-76
2022/09/27 14:02:51;;;;;;;0.00;0.00;;;14.60;99.90;;;;;;5008646;28;20441;-71
2022/09/27 14:05:26;;;;;;;0.00;0.00;;;14.50;99.90;;;;;;4977097;28;20540;-71
2022/09/27 14:07:58;;;;;;;0.00;0.00;;;14.40;99.90;;;;;;4977102;28;20879;-72
2022/09/27 14:10:28;;;;;;;0.00;0.00;;;14.40;99.90;;;;;;4977706;28;20786;-71
2022/09/27 14:13:00;;;;;;;0.00;0.00;;;14.40;99.90;;;;;;4977692;28;20824;-74
2022/09/27 14:15:30;;;;;;;0.00;0.00;;;14.30;99.90;;;;;;4977486;28;20775;-73
2022/09/27 14:17:59;;;;;;;0.00;0.00;;;14.30;99.90;;;;;;4998040;28;20826;-73
2022/09/27 14:20:34;;;;;;;0.00;0.00;;;14.10;99.90;;;;;;5009220;28;20890;-75
2022/09/27 14:23:03;;;;;;;0.00;0.00;;;14.00;99.90;;;;;;5002764;28;20502;-74
2022/09/27 14:25:31;;;;;;;0.00;0.00;;;14.00;99.90;;;;;;4997362;28;20507;-73
2022/09/27 14:28:01;;;;;;;0.00;0.00;;;13.90;99.90;;;;;;4996564;28;20442;-73
2022/09/27 14:30:30;;;;;;;0.00;0.00;;;13.70;99.90;;;;;;5006733;28;20485;-74
2022/09/27 14:32:59;;;;;;;0.00;0.00;;;13.60;99.90;;;;;;5018353;28;20450;-71
2022/09/27 14:38:17;;;;;;;0.00;0.00;;;13.40;99.90;;;;;;5018923;28;20433;-71
2022/09/27 14:41:07;;;;;;;0.00;0.00;;;13.20;99.90;;;;;;4999818;28;20488;-71
2022/09/27 14:43:41;;;;;;;0.00;0.00;;;13.10;99.90;;;;;;4996658;28;20445;-72
2022/09/27 14:46:26;;;;;;;0.00;0.00;;;12.90;99.90;;;;;;5002455;28;20759;-72
2022/09/27 14:48:55;;;;;;;0.00;0.00;;;12.80;99.90;;;;;;4996674;28;20921;-72
2022/09/27 14:51:28;;;;;;;0.00;0.00;;;12.70;99.90;;;;;;5009625;28;20468;-70
2022/09/27 14:53:59;;;;;;;0.00;0.00;;;12.70;99.90;;;;;;5011528;28;20445;-78
2022/09/27 14:56:31;;;;;;;0.00;0.00;;;12.70;99.90;;;;;;4997164;28;20442;-72
2022/09/27 14:59:05;;;;;;;0.00;0.00;;;12.60;99.90;;;;;;4996549;28;20691;-68
2022/09/27 15:01:33;;;;;;;0.00;0.00;;;12.50;99.90;;;;;;5000998;28;20456;-68
2022/09/27 15:04:05;;;;;;;0.00;0.00;;;12.40;99.90;;;;;;5016303;28;20490;-68
2022/09/27 15:06:36;;;;;;;0.00;0.00;;;12.50;99.90;;;;;;5007816;28;20862;-68
2022/09/27 15:09:05;;;;;;;0.00;0.00;;;12.60;99.90;;;;;;5018848;28;20698;-70
2022/09/27 15:11:34;;;;;;;0.00;0.00;;;12.60;99.90;;;;;;4980254;28;20443;-69
2022/09/27 15:14:05;;;;;;;0.00;0.00;;;12.60;99.90;;;;;;4980852;28;20442;-70
2022/09/27 15:16:33;;;;;;;0.00;0.00;;;12.70;99.90;;;;;;4981193;28;20609;-70
2022/09/27 15:19:03;;;;;;;0.00;0.00;;;12.80;99.90;;;;;;4993787;28;20461;-69
2022/09/27 15:21:32;;;;;;;0.00;0.00;;;12.80;99.90;;;;;;5018695;28;20690;-69
2022/09/27 15:24:01;;;;;;;0.00;0.00;;;12.80;99.90;;;;;;5003613;28;20737;-69
2022/09/27 15:26:37;;;;;;;0.00;0.00;;;12.90;99.90;;;;;;5014459;28;21101;-70
2022/09/27 15:29:07;;;;;;;0.00;0.00;;;12.90;99.90;;;;;;5019378;28;20467;-70
2022/09/27 15:31:36;;;;;;;0.00;0.00;;;12.80;99.90;;;;;;5019122;28;20437;-69
2022/09/27 15:34:05;;;;;;;0.00;0.00;;;12.80;99.90;;;;;;5018930;28;20505;-69
2022/09/27 15:36:54;;;;;;;0.00;0.00;;;12.80;99.90;;;;;;5018814;28;20445;-69
2022/09/27 15:39:28;;;;;;;0.00;0.00;;;12.80;99.90;;;;;;5019500;28;20526;-69
2022/09/27 15:42:11;;;;;;;0.00;0.00;;;12.80;99.90;;;;;;5021413;28;20524;-70
2022/09/27 15:44:46;;;;;;;0.00;0.00;;;12.80;99.90;;;;;;5021653;28;20441;-70
2022/09/27 15:47:56;;;;;;;0.00;0.00;;;12.80;99.90;;;;;;5019487;28;20483;-69
2022/09/27 15:50:48;;;;;;;0.00;0.00;;;12.80;99.90;;;;;;5016002;28;20560;-69
2022/09/27 15:53:41;;;;;;;0.00;0.00;;;12.90;99.90;;;;;;5006347;28;20719;-70
2022/09/27 15:56:13;;;;;;;0.00;0.00;;;12.90;99.90;;;;;;5008920;28;20967;-70
2022/09/27 15:58:43;;;;;;;0.00;0.00;;;12.90;99.90;;;;;;5003493;28;21094;-70
2022/09/27 16:01:22;;;;;;;0.00;0.00;;;13.00;99.90;;;;;;5002986;28;20489;-71
2022/09/27 16:03:50;;;;;;;0.00;0.00;;;13.10;99.90;;;;;;4991799;28;20455;-73
2022/09/27 16:06:18;;;;;;;0.00;0.00;;;13.10;99.90;;;;;;5013291;28;20756;-72
2022/09/27 16:08:46;;;;;;;0.00;0.00;;;13.00;99.90;;;;;;5026805;28;20450;-77
2022/09/27 16:11:17;;;;;;;0.00;0.00;;;12.90;99.90;;;;;;5021323;28;20793;-68
2022/09/27 16:13:45;;;;;;;0.00;0.00;;;12.90;99.90;;;;;;5006810;28;20453;-69
2022/09/27 16:16:19;;;;;;;0.00;0.00;;;12.80;99.90;;;;;;5013345;28;20442;-70
2022/09/27 16:18:48;;;;;;;0.00;0.00;;;12.80;99.90;;;;;;4997483;28;20462;-68
2022/09/27 16:21:17;;;;;;;0.00;0.00;;;12.80;99.90;;;;;;5037946;28;20690;-70
2022/09/27 16:23:44;;;;;;;0.00;0.00;;;12.90;99.90;;;;;;5030825;28;20639;-69
2022/09/27 16:26:12;;;;;;;0.00;0.00;;;12.80;99.90;;;;;;5022321;28;20650;-70
2022/09/27 16:28:40;;;;;;;0.00;0.00;;;12.80;99.90;;;;;;5018889;28;20453;-70
2022/09/27 16:31:09;;;;;;;0.00;0.00;;;12.80;99.90;;;;;;5008556;28;20496;-69
2022/09/27 16:33:38;;;;;;;0.00;0.00;;;12.70;99.90;;;;;;4998907;28;20503;-69
2022/09/27 16:36:13;;;;;;;0.00;0.00;;;12.70;99.90;;;;;;4995328;28;20930;-69
2022/09/27 16:38:41;;;;;;;0.00;0.00;;;12.70;99.90;;;;;;4999682;28;20539;-68
2022/09/27 16:41:09;;;;;;;0.00;0.00;;;12.60;99.90;;;;;;4990877;28;20494;-68
2022/09/27 16:43:37;;;;;;;0.00;0.00;;;12.60;99.90;;;;;;4994903;28;20448;-68
2022/09/27 16:46:08;;;;;;;0.00;0.00;;;12.70;99.90;;;;;;4984816;28;20965;-69
2022/09/27 16:48:37;;;;;;;0.00;0.00;;;12.70;99.90;;;;;;4988728;28;20985;-69
2022/09/27 16:53:52;;;;;;;0.00;0.00;;;12.70;99.90;;;;;;4996869;28;20760;-68
2022/09/27 16:56:20;;;;;;;0.00;0.00;;;12.70;99.90;;;;;;4994546;28;20544;-69
2022/09/27 16:58:48;;;;;;;0.00;0.00;;;12.70;99.90;;;;;;4987353;28;21168;-70
2022/09/27 17:01:16;;;;;;;0.00;0.00;;;12.70;99.90;;;;;;4999708;28;20502;-69
2022/09/27 17:03:49;;;;;;;0.00;0.00;;;12.70;99.90;;;;;;5001622;28;20562;-69
2022/09/27 17:06:22;;;;;;;0.00;0.00;;;12.70;99.90;;;;;;4999683;28;20474;-71
2022/09/27 17:08:50;;;;;;;0.00;0.00;;;12.70;99.90;;;;;;4999359;28;20443;-69
2022/09/27 17:11:20;;;;;;;0.00;0.00;;;12.60;99.90;;;;;;4993309;28;20462;-67
2022/09/27 17:13:49;;;;;;;0.00;0.00;;;12.50;99.90;;;;;;4995043;28;20458;-67
2022/09/27 17:16:16;;;;;;;0.00;0.00;;;12.40;99.90;;;;;;4991885;28;20447;-70
2022/09/27 17:18:45;;;;;;;0.00;0.00;;;12.30;99.90;;;;;;4985182;28;20752;-68
2022/09/27 17:21:14;;;;;;;0.00;0.00;;;12.30;99.90;;;;;;5001264;28;20531;-68
2022/09/27 17:23:42;;;;;;;0.00;0.00;;;12.30;99.90;;;;;;4989487;28;20631;-71
2022/09/27 17:26:16;;;;;;;0.00;0.00;;;12.20;99.90;;;;;;4991274;28;20517;-69
2022/09/27 17:28:44;;;;;;;0.00;0.00;;;12.20;99.90;;;;;;5010191;28;20477;-68
2022/09/27 17:31:16;;;;;;;0.00;0.00;;;12.20;99.90;;;;;;5021049;28;20473;-67
2022/09/27 17:33:47;;;;;;;0.00;0.00;;;12.20;99.90;;;;;;5021305;28;20478;-69
2022/09/27 17:36:16;;;;;;;0.00;0.00;;;12.10;99.90;;;;;;4998911;28;20458;-67
2022/09/27 17:38:45;;;;;;;0.00;0.00;;;12.10;99.90;;;;;;4997853;28;20438;-69
2022/09/27 17:41:15;;;;;;;0.00;0.00;;;12.10;99.90;;;;;;5085661;28;20650;-69
2022/09/27 17:43:48;;;;;;;0.00;0.00;;;12.10;99.90;;;;;;5021044;28;20469;-69
2022/09/27 17:46:17;;;;;;;0.00;0.00;;;12.10;99.90;;;;;;5016652;28;20951;-70
2022/09/27 17:51:35;;;;;;;0.00;0.00;;;12.10;99.90;;;;;;5018756;28;20457;-70
2022/09/27 17:54:06;;;;;;;0.00;0.00;;;12.00;99.90;;;;;;5100202;28;20521;-70
2022/09/27 17:56:36;;;;;;;0.00;0.00;;;11.90;99.90;;;;;;5100723;28;20848;-70
2022/09/27 17:59:05;;;;;;;0.00;0.00;;;11.80;99.90;;;;;;5099891;28;20979;-69
2022/09/27 18:01:33;;;;;;;0.00;0.00;;;11.70;99.90;;;;;;5057222;27;20458;-69
2022/09/27 18:04:03;;;;;;;0.00;0.00;;;11.70;99.90;;;;;;4998105;28;20953;-70
2022/09/27 18:06:31;;;;;;;0.00;0.00;;;11.60;99.90;;;;;;5005191;28;20596;-70
2022/09/27 18:09:01;;;;;;;0.00;0.00;;;11.60;99.90;;;;;;5030638;28;20618;-70
2022/09/27 18:11:28;;;;;;;0.00;0.00;;;11.60;99.90;;;;;;5022843;28;20780;-70
2022/09/27 18:13:58;;;;;;;0.00;0.00;;;11.60;99.90;;;;;;5016616;28;20445;-70
2022/09/27 18:16:31;;;;;;;0.00;0.00;;;11.50;99.90;;;;;;5017074;28;20437;-70
2022/09/27 18:18:59;;;;;;;0.00;0.00;;;11.50;99.90;;;;;;5016857;28;20461;-71
2022/09/27 18:21:30;;;;;;;0.00;0.00;;;11.50;99.90;;;;;;5015903;28;20499;-71
2022/09/27 18:24:01;;;;;;;0.00;0.00;;;11.50;99.90;;;;;;5016105;28;20449;-71
2022/09/27 18:26:29;;;;;;;0.00;0.00;;;11.50;99.90;;;;;;5016207;28;20811;-70
2022/09/27 18:29:01;;;;;;;0.00;0.00;;;11.50;99.90;;;;;;5007050;28;21061;-70
2022/09/27 18:31:29;;;;;;;0.00;0.00;;;11.50;99.90;;;;;;4996526;28;20475;-69
2022/09/27 18:33:57;;;;;;;0.00;0.00;;;11.60;99.90;;;;;;4997029;28;20728;-69
2022/09/27 18:36:26;;;;;;;0.00;0.00;;;11.60;99.90;;;;;;4997224;28;20450;-69
2022/09/27 18:38:57;;;;;;;0.00;0.00;;;11.60;99.90;;;;;;4996412;28;20825;-69
2022/09/27 18:41:27;;;;;;;0.00;0.00;;;11.70;99.90;;;;;;4996544;28;20450;-69
2022/09/27 18:43:57;;;;;;;0.00;0.00;;;11.70;99.90;;;;;;5052970;28;20484;-69
2022/09/27 18:46:27;;;;;;;0.00;0.00;;;11.60;99.90;;;;;;5099733;28;20469;-70
2022/09/27 18:49:04;;;;;;;0.00;0.00;;;11.60;99.90;;;;;;5061355;28;20776;-71
2022/09/27 18:51:36;;;;;;;0.00;0.00;;;11.50;99.90;;;;;;5016097;28;20984;-73
2022/09/27 18:54:08;;;;;;;0.00;0.00;;;11.50;99.90;;;;;;5005541;28;20497;-68
2022/09/27 18:56:38;;;;;;;0.00;0.00;;;11.60;99.90;;;;;;4993800;28;20961;-67
2022/09/27 18:59:07;;;;;;;0.00;0.00;;;11.60;99.90;;;;;;4991073;28;20458;-67
2022/09/27 19:01:38;;;;;;;0.00;0.00;;;11.60;99.90;;;;;;4990411;28;20594;-68
2022/09/27 19:04:06;;;;;;;0.00;0.00;;;11.50;99.90;;;;;;5000512;28;20835;-68
2022/09/27 19:06:35;;;;;;;0.00;0.00;;;11.50;99.90;;;;;;4996493;28;20430;-68
2022/09/27 19:09:05;;;;;;;0.00;0.00;;;11.50;99.90;;;;;;4988650;28;20487;-68
2022/09/27 19:11:34;;;;;;;0.00;0.00;;;11.40;99.90;;;;;;4988014;28;20434;-69
2022/09/27 19:14:02;;;;;;;0.00;0.00;;;11.30;99.90;;;;;;4988070;28;20665;-68
2022/09/27 19:16:30;;;;;;;0.00;0.00;;;11.30;99.90;;;;;;4985624;28;20615;-69
2022/09/27 19:18:58;;;;;;;0.00;0.00;;;11.30;99.90;;;;;;4977141;28;20436;-69
2022/09/27 19:21:28;;;;;;;0.00;0.00;;;11.20;99.90;;;;;;5007899;28;21004;-72
2022/09/27 19:23:56;;;;;;;0.00;0.00;;;11.20;99.90;;;;;;5006638;28;20470;-70
2022/09/27 19:26:26;;;;;;;0.00;0.00;;;11.10;99.90;;;;;;4998392;28;20619;-70
2022/09/27 19:28:55;;;;;;;0.00;0.00;;;11.00;99.90;;;;;;5015697;28;20706;-71
2022/09/27 19:31:24;;;;;;;0.00;0.00;;;11.00;99.90;;;;;;5016172;28;20465;-70
2022/09/27 19:33:53;;;;;;;0.00;0.00;;;11.00;99.90;;;;;;5001656;28;20613;-69
2022/09/27 19:36:27;;;;;;;0.00;0.00;;;11.00;99.90;;;;;;4998627;28;20450;-70
2022/09/27 19:38:57;;;;;;;0.00;0.00;;;11.00;99.90;;;;;;5008838;28;20457;-69
2022/09/27 19:41:27;;;;;;;0.00;0.00;;;11.10;99.90;;;;;;4992995;28;20700;-67
2022/09/27 19:43:57;;;;;;;0.00;0.00;;;11.10;99.90;;;;;;4978745;28;20458;-67
2022/09/27 19:46:25;;;;;;;0.00;0.00;;;11.10;99.90;;;;;;4977990;28;20962;-68
2022/09/27 19:48:54;;;;;;;0.00;0.00;;;11.10;99.90;;;;;;4977485;28;21126;-66
2022/09/27 19:51:24;;;;;;;0.00;0.00;;;11.20;99.90;;;;;;4980528;28;20631;-68
2022/09/27 19:53:53;;;;;;;0.00;0.00;;;11.20;99.90;;;;;;4980647;28;20563;-68
2022/09/27 19:56:22;;;;;;;0.00;0.00;;;11.20;99.90;;;;;;4981246;28;20942;-67
2022/09/27 19:58:52;;;;;;;0.00;0.00;;;11.20;99.90;;;;;;4982450;28;20439;-69
2022/09/27 20:01:21;;;;;;;0.00;0.00;;;11.30;99.90;;;;;;4981488;28;20491;-68
2022/09/27 20:03:52;;;;;;;0.00;0.00;;;11.20;99.90;;;;;;4980709;28;20470;-69
2022/09/27 20:06:20;;;;;;;0.00;0.00;;;11.30;99.90;;;;;;4981022;28;20450;-69
2022/09/27 20:08:49;;;;;;;0.00;0.00;;;11.30;99.90;;;;;;4981007;28;20579;-67
2022/09/27 20:11:18;;;;;;;0.00;0.00;;;11.30;99.90;;;;;;4982730;28;20471;-69
2022/09/27 20:13:48;;;;;;;0.00;0.00;;;11.30;99.90;;;;;;4981220;28;20442;-70
2022/09/27 20:16:18;;;;;;;0.00;0.00;;;11.30;99.90;;;;;;4981600;28;20714;-69